SKK002 DXXX-DIAP
Flight info
| Callsign | SKK002 |
|---|---|
| Flight time | 1h 7m |
| Altitude | 32000 |
| Route | KETAT2S KETAT DCT EREKA UL433 ACC UM244 ONESI TAVAL2D |
| Aircraft | B738/M-SDE2E3FGHIRWXY/LB1 |
Departure
| Time | 2026-04-25 12:48 |
|---|---|
| Airport | Lomé–Tokoin International Airport (DXXX) |
Arrival
| Time | 2026-04-25 13:56 |
|---|---|
| Airport | Félix-Houphouët-Boigny International Airport (DIAP) |
| Time | Latitude | Longitude | Altitude | Speed | Heading |
|---|---|---|---|---|---|
| 2026-04-25 11:59 | 6.16680 | 1.25168 | 71 ft | 0 kts | 304° |
| 2026-04-25 12:35 | 6.16679 | 1.25169 | 62 ft | 0 kts | 304° |
| 2026-04-25 12:35 | 6.16676 | 1.25173 | 60 ft | 2 kts | 305° |
| 2026-04-25 12:35 | 6.16673 | 1.25178 | 60 ft | 0 kts | 305° |
| 2026-04-25 12:35 | 6.16670 | 1.25182 | 60 ft | 0 kts | 305° |
| 2026-04-25 12:36 | 6.16667 | 1.25187 | 60 ft | 0 kts | 305° |
| 2026-04-25 12:36 | 6.16664 | 1.25191 | 66 ft | 2 kts | 305° |
| 2026-04-25 12:36 | 6.16661 | 1.25196 | 65 ft | 2 kts | 305° |
| 2026-04-25 12:36 | 6.16658 | 1.25200 | 65 ft | 2 kts | 305° |
| 2026-04-25 12:37 | 6.16655 | 1.25205 | 62 ft | 0 kts | 313° |
| 2026-04-25 12:37 | 6.16651 | 1.25209 | 63 ft | 0 kts | 323° |
| 2026-04-25 12:37 | 6.16646 | 1.25212 | 65 ft | 2 kts | 336° |
| 2026-04-25 12:37 | 6.16640 | 1.25215 | 67 ft | 0 kts | 345° |
| 2026-04-25 12:38 | 6.16633 | 1.25216 | 61 ft | 0 kts | 353° |
| 2026-04-25 12:38 | 6.16627 | 1.25217 | 66 ft | 2 kts | 359° |
| 2026-04-25 12:38 | 6.16620 | 1.25217 | 68 ft | 2 kts | 13° |
| 2026-04-25 12:38 | 6.16614 | 1.25215 | 67 ft | 0 kts | 33° |
| 2026-04-25 12:41 | 6.16615 | 1.25215 | 70 ft | 0 kts | 33° |
| 2026-04-25 12:41 | 6.16615 | 1.25216 | 70 ft | 0 kts | 33° |
| 2026-04-25 12:42 | 6.16616 | 1.25216 | 70 ft | 0 kts | 33° |
| 2026-04-25 12:42 | 6.16617 | 1.25217 | 70 ft | 0 kts | 33° |
| 2026-04-25 12:42 | 6.16618 | 1.25217 | 63 ft | 0 kts | 33° |
| 2026-04-25 12:42 | 6.16668 | 1.25255 | 67 ft | 15 kts | 48° |
| 2026-04-25 12:43 | 6.16673 | 1.25325 | 65 ft | 7 kts | 121° |
| 2026-04-25 12:43 | 6.16665 | 1.25338 | 70 ft | 0 kts | 126° |
| 2026-04-25 12:43 | 6.16640 | 1.25370 | 70 ft | 11 kts | 129° |
| 2026-04-25 12:44 | 6.16625 | 1.25450 | 61 ft | 12 kts | 58° |
| 2026-04-25 12:44 | 6.16714 | 1.25531 | 68 ft | 22 kts | 38° |
| 2026-04-25 12:44 | 6.17053 | 1.25798 | 66 ft | 34 kts | 38° |
| 2026-04-25 12:45 | 6.17224 | 1.25935 | 68 ft | 31 kts | 39° |
| 2026-04-25 12:45 | 6.17393 | 1.26071 | 66 ft | 30 kts | 38° |
| 2026-04-25 12:45 | 6.17576 | 1.26271 | 68 ft | 15 kts | 34° |
| 2026-04-25 12:46 | 6.17614 | 1.26235 | 68 ft | 10 kts | 236° |
| 2026-04-25 12:46 | 6.17561 | 1.26201 | 71 ft | 0 kts | 218° |
| 2026-04-25 12:47 | 6.17556 | 1.26197 | 68 ft | 5 kts | 218° |
| 2026-04-25 12:47 | 6.17377 | 1.26052 | 65 ft | 69 kts | 218° |
| 2026-04-25 12:48 | 6.16823 | 1.25612 | 72 ft | 132 kts | 218° |
| 2026-04-25 12:48 | 6.15992 | 1.24948 | 266 ft | 165 kts | 219° |
| 2026-04-25 12:48 | 6.15074 | 1.24206 | 930 ft | 173 kts | 217° |
| 2026-04-25 12:48 | 6.14045 | 1.23484 | 1488 ft | 190 kts | 220° |
| 2026-04-25 12:49 | 6.13455 | 1.22332 | 2254 ft | 199 kts | 259° |
| 2026-04-25 12:49 | 6.13331 | 1.20864 | 2470 ft | 224 kts | 258° |
| 2026-04-25 12:49 | 6.12920 | 1.19354 | 2977 ft | 231 kts | 251° |
| 2026-04-25 12:49 | 6.12424 | 1.17833 | 3562 ft | 235 kts | 251° |
| 2026-04-25 12:50 | 6.11903 | 1.16251 | 4183 ft | 237 kts | 251° |
| 2026-04-25 12:50 | 6.11394 | 1.14676 | 4695 ft | 243 kts | 251° |
| 2026-04-25 12:50 | 6.10869 | 1.13035 | 5281 ft | 245 kts | 251° |
| 2026-04-25 12:50 | 6.10349 | 1.11399 | 5861 ft | 248 kts | 252° |
| 2026-04-25 12:51 | 6.09823 | 1.09723 | 6387 ft | 253 kts | 252° |
| 2026-04-25 12:51 | 6.09291 | 1.08017 | 6875 ft | 258 kts | 252° |
| 2026-04-25 12:51 | 6.08750 | 1.06279 | 7345 ft | 263 kts | 252° |
| 2026-04-25 12:51 | 6.08207 | 1.04533 | 7814 ft | 268 kts | 252° |
| 2026-04-25 12:52 | 6.07648 | 1.02732 | 8277 ft | 273 kts | 252° |
| 2026-04-25 12:52 | 6.07079 | 1.00902 | 8755 ft | 277 kts | 252° |
| 2026-04-25 12:52 | 6.06475 | 0.99039 | 9202 ft | 283 kts | 250° |
| 2026-04-25 12:52 | 6.05788 | 0.97185 | 9758 ft | 284 kts | 249° |
| 2026-04-25 12:53 | 6.05076 | 0.95319 | 10176 ft | 289 kts | 249° |
| 2026-04-25 12:53 | 6.04358 | 0.93438 | 10728 ft | 287 kts | 249° |
| 2026-04-25 12:53 | 6.03642 | 0.91551 | 11144 ft | 292 kts | 249° |
| 2026-04-25 12:53 | 6.02917 | 0.89634 | 11661 ft | 294 kts | 249° |
| 2026-04-25 12:54 | 6.02186 | 0.87690 | 12053 ft | 307 kts | 250° |
| 2026-04-25 12:54 | 6.01413 | 0.85633 | 12222 ft | 329 kts | 250° |
| 2026-04-25 12:54 | 6.00567 | 0.83376 | 12408 ft | 351 kts | 250° |
| 2026-04-25 12:54 | 5.99684 | 0.81022 | 12675 ft | 368 kts | 250° |
| 2026-04-25 12:55 | 5.98773 | 0.78594 | 13217 ft | 374 kts | 250° |
| 2026-04-25 12:55 | 5.98164 | 0.76975 | 13739 ft | 374 kts | 250° |
| 2026-04-25 12:55 | 5.96946 | 0.73726 | 14513 ft | 378 kts | 250° |
| 2026-04-25 12:55 | 5.96017 | 0.71250 | 15107 ft | 380 kts | 250° |
| 2026-04-25 12:56 | 5.95083 | 0.68763 | 15733 ft | 381 kts | 250° |
| 2026-04-25 12:56 | 5.94145 | 0.66264 | 16351 ft | 383 kts | 250° |
| 2026-04-25 12:56 | 5.93205 | 0.63758 | 16960 ft | 384 kts | 250° |
| 2026-04-25 12:56 | 5.92259 | 0.61236 | 17553 ft | 387 kts | 249° |
| 2026-04-25 12:57 | 5.91307 | 0.58700 | 18121 ft | 389 kts | 249° |
| 2026-04-25 12:57 | 5.90350 | 0.56151 | 18622 ft | 391 kts | 249° |
| 2026-04-25 12:57 | 5.89400 | 0.53620 | 19084 ft | 394 kts | 249° |
| 2026-04-25 12:57 | 5.88430 | 0.51037 | 19531 ft | 397 kts | 249° |
| 2026-04-25 12:58 | 5.87454 | 0.48438 | 19990 ft | 399 kts | 249° |
| 2026-04-25 12:58 | 5.86471 | 0.45820 | 20456 ft | 402 kts | 249° |
| 2026-04-25 12:58 | 5.85481 | 0.43186 | 20893 ft | 404 kts | 249° |
| 2026-04-25 12:58 | 5.84486 | 0.40537 | 21324 ft | 407 kts | 248° |
| 2026-04-25 12:59 | 5.83482 | 0.37866 | 21760 ft | 410 kts | 248° |
| 2026-04-25 12:59 | 5.82473 | 0.35182 | 22187 ft | 412 kts | 248° |
| 2026-04-25 12:59 | 5.81460 | 0.32487 | 22617 ft | 415 kts | 248° |
| 2026-04-25 12:59 | 5.80437 | 0.29764 | 23030 ft | 417 kts | 248° |
| 2026-04-25 13:00 | 5.79410 | 0.27033 | 23425 ft | 420 kts | 248° |
| 2026-04-25 13:00 | 5.79077 | 0.26147 | 23540 ft | 420 kts | 248° |
| 2026-04-25 13:00 | 5.77353 | 0.21566 | 24066 ft | 425 kts | 248° |
| 2026-04-25 13:00 | 5.76305 | 0.18779 | 24372 ft | 427 kts | 248° |
| 2026-04-25 13:01 | 5.75250 | 0.15975 | 24673 ft | 430 kts | 248° |
| 2026-04-25 13:01 | 5.74191 | 0.13159 | 24976 ft | 432 kts | 248° |
| 2026-04-25 13:01 | 5.73126 | 0.10329 | 25286 ft | 435 kts | 248° |
| 2026-04-25 13:01 | 5.72053 | 0.07480 | 25575 ft | 437 kts | 248° |
| 2026-04-25 13:02 | 5.70976 | 0.04616 | 25853 ft | 440 kts | 248° |
| 2026-04-25 13:02 | 5.69891 | 0.01735 | 26144 ft | 442 kts | 248° |
| 2026-04-25 13:02 | 5.68800 | -0.01165 | 26421 ft | 445 kts | 248° |
| 2026-04-25 13:02 | 5.67708 | -0.04063 | 26702 ft | 447 kts | 248° |
| 2026-04-25 13:03 | 5.66619 | -0.06952 | 26986 ft | 449 kts | 248° |
| 2026-04-25 13:03 | 5.65512 | -0.09892 | 27243 ft | 452 kts | 248° |
| 2026-04-25 13:03 | 5.64397 | -0.12852 | 27505 ft | 454 kts | 248° |
| 2026-04-25 13:03 | 5.63411 | -0.15881 | 27754 ft | 458 kts | 255° |
| 2026-04-25 13:04 | 5.62922 | -0.19042 | 28032 ft | 461 kts | 264° |
| 2026-04-25 13:04 | 5.62657 | -0.22255 | 28312 ft | 462 kts | 264° |
| 2026-04-25 13:04 | 5.62395 | -0.25482 | 28548 ft | 465 kts | 264° |
| 2026-04-25 13:04 | 5.62122 | -0.28723 | 28787 ft | 467 kts | 264° |
| 2026-04-25 13:05 | 5.61835 | -0.31976 | 29041 ft | 469 kts | 264° |
| 2026-04-25 13:05 | 5.61537 | -0.35242 | 29295 ft | 471 kts | 264° |
| 2026-04-25 13:05 | 5.61230 | -0.38519 | 29526 ft | 473 kts | 264° |
| 2026-04-25 13:05 | 5.60918 | -0.41813 | 29753 ft | 475 kts | 264° |
| 2026-04-25 13:06 | 5.60710 | -0.44004 | 29906 ft | 476 kts | 264° |
| 2026-04-25 13:06 | 5.60292 | -0.48392 | 30182 ft | 478 kts | 264° |
| 2026-04-25 13:06 | 5.59977 | -0.51702 | 30486 ft | 476 kts | 264° |
| 2026-04-25 13:06 | 5.59662 | -0.55015 | 30784 ft | 475 kts | 264° |
| 2026-04-25 13:07 | 5.59349 | -0.58310 | 31059 ft | 475 kts | 264° |
| 2026-04-25 13:07 | 5.59036 | -0.61607 | 31317 ft | 475 kts | 264° |
| 2026-04-25 13:07 | 5.58722 | -0.64908 | 31605 ft | 474 kts | 264° |
| 2026-04-25 13:07 | 5.58409 | -0.68200 | 31905 ft | 473 kts | 264° |
| 2026-04-25 13:08 | 5.57783 | -0.74773 | 31967 ft | 478 kts | 264° |
| 2026-04-25 13:08 | 5.57153 | -0.81390 | 31957 ft | 472 kts | 264° |
| 2026-04-25 13:09 | 5.56525 | -0.87972 | 31975 ft | 471 kts | 264° |
| 2026-04-25 13:09 | 5.55904 | -0.94466 | 31966 ft | 471 kts | 264° |
| 2026-04-25 13:10 | 5.55380 | -0.99950 | 31968 ft | 471 kts | 264° |
| 2026-04-25 13:10 | 5.54650 | -1.07567 | 31966 ft | 472 kts | 264° |
| 2026-04-25 13:11 | 5.54019 | -1.14157 | 31416 ft | 478 kts | 264° |
| 2026-04-25 13:11 | 5.53700 | -1.17492 | 30966 ft | 481 kts | 264° |
| 2026-04-25 13:11 | 5.53386 | -1.20833 | 30519 ft | 479 kts | 264° |
| 2026-04-25 13:12 | 5.53077 | -1.24140 | 30057 ft | 474 kts | 264° |
| 2026-04-25 13:12 | 5.52774 | -1.27389 | 29555 ft | 473 kts | 264° |
| 2026-04-25 13:12 | 5.52463 | -1.30725 | 29039 ft | 474 kts | 264° |
| 2026-04-25 13:12 | 5.52362 | -1.31799 | 28870 ft | 475 kts | 264° |
| 2026-04-25 13:13 | 5.51844 | -1.37325 | 28025 ft | 475 kts | 264° |
| 2026-04-25 13:13 | 5.51538 | -1.40581 | 27539 ft | 475 kts | 264° |
| 2026-04-25 13:13 | 5.51223 | -1.43928 | 27044 ft | 475 kts | 264° |
| 2026-04-25 13:13 | 5.50915 | -1.47208 | 26571 ft | 475 kts | 264° |
| 2026-04-25 13:14 | 5.50603 | -1.50519 | 26093 ft | 474 kts | 264° |
| 2026-04-25 13:14 | 5.50292 | -1.53814 | 25658 ft | 474 kts | 264° |
| 2026-04-25 13:14 | 5.49982 | -1.57102 | 25199 ft | 473 kts | 264° |
| 2026-04-25 13:14 | 5.49778 | -1.59271 | 24897 ft | 472 kts | 264° |
| 2026-04-25 13:15 | 5.49370 | -1.63599 | 24314 ft | 469 kts | 264° |
| 2026-04-25 13:15 | 5.49064 | -1.66844 | 23872 ft | 464 kts | 264° |
| 2026-04-25 13:15 | 5.48763 | -1.70036 | 23439 ft | 457 kts | 264° |
| 2026-04-25 13:15 | 5.48469 | -1.73183 | 22918 ft | 449 kts | 264° |
| 2026-04-25 13:16 | 5.48184 | -1.76297 | 22412 ft | 446 kts | 264° |
| 2026-04-25 13:16 | 5.47905 | -1.79387 | 21907 ft | 443 kts | 264° |
| 2026-04-25 13:16 | 5.47721 | -1.81422 | 21581 ft | 441 kts | 264° |
| 2026-04-25 13:16 | 5.47355 | -1.85459 | 20940 ft | 437 kts | 264° |
| 2026-04-25 13:17 | 5.47080 | -1.88491 | 20458 ft | 435 kts | 264° |
| 2026-04-25 13:17 | 5.46806 | -1.91508 | 19991 ft | 433 kts | 264° |
| 2026-04-25 13:17 | 5.46532 | -1.94512 | 19529 ft | 431 kts | 264° |
| 2026-04-25 13:17 | 5.46256 | -1.97539 | 19068 ft | 429 kts | 264° |
| 2026-04-25 13:18 | 5.45988 | -2.00472 | 18624 ft | 427 kts | 265° |
| 2026-04-25 13:18 | 5.45717 | -2.03440 | 18186 ft | 425 kts | 265° |
| 2026-04-25 13:18 | 5.45447 | -2.06390 | 17674 ft | 424 kts | 265° |
| 2026-04-25 13:18 | 5.45265 | -2.08376 | 17332 ft | 422 kts | 265° |
| 2026-04-25 13:19 | 5.44998 | -2.11294 | 16973 ft | 417 kts | 265° |
| 2026-04-25 13:19 | 5.44649 | -2.15114 | 16477 ft | 413 kts | 265° |
| 2026-04-25 13:19 | 5.44387 | -2.17973 | 16112 ft | 411 kts | 265° |
| 2026-04-25 13:19 | 5.44298 | -2.18935 | 15991 ft | 410 kts | 265° |
| 2026-04-25 13:20 | 5.43866 | -2.23658 | 15445 ft | 407 kts | 265° |
| 2026-04-25 13:20 | 5.43608 | -2.26470 | 15207 ft | 403 kts | 265° |
| 2026-04-25 13:20 | 5.43350 | -2.29281 | 14984 ft | 407 kts | 265° |
| 2026-04-25 13:20 | 5.43093 | -2.32087 | 14750 ft | 409 kts | 265° |
| 2026-04-25 13:21 | 5.42833 | -2.34913 | 14509 ft | 406 kts | 265° |
| 2026-04-25 13:21 | 5.42575 | -2.37718 | 14274 ft | 399 kts | 265° |
| 2026-04-25 13:21 | 5.42321 | -2.40481 | 14057 ft | 400 kts | 265° |
| 2026-04-25 13:21 | 5.42065 | -2.43264 | 13833 ft | 403 kts | 265° |
| 2026-04-25 13:22 | 5.41808 | -2.46060 | 13595 ft | 401 kts | 265° |
| 2026-04-25 13:22 | 5.41551 | -2.48847 | 13343 ft | 399 kts | 266° |
| 2026-04-25 13:22 | 5.41297 | -2.51605 | 13087 ft | 397 kts | 266° |
| 2026-04-25 13:23 | 5.40789 | -2.57117 | 12593 ft | 396 kts | 265° |
| 2026-04-25 13:23 | 5.40535 | -2.59870 | 12349 ft | 395 kts | 265° |
| 2026-04-25 13:23 | 5.40285 | -2.62573 | 12109 ft | 393 kts | 265° |
| 2026-04-25 13:23 | 5.40039 | -2.65237 | 11839 ft | 375 kts | 265° |
| 2026-04-25 13:24 | 5.39812 | -2.67688 | 11595 ft | 357 kts | 265° |
| 2026-04-25 13:24 | 5.39587 | -2.70117 | 11334 ft | 341 kts | 266° |
| 2026-04-25 13:24 | 5.39372 | -2.72435 | 11077 ft | 327 kts | 266° |
| 2026-04-25 13:24 | 5.39167 | -2.74643 | 10882 ft | 309 kts | 266° |
| 2026-04-25 13:25 | 5.39046 | -2.76732 | 10639 ft | 292 kts | 271° |
| 2026-04-25 13:25 | 5.39086 | -2.78756 | 10440 ft | 289 kts | 273° |
| 2026-04-25 13:25 | 5.39168 | -2.80775 | 10208 ft | 291 kts | 274° |
| 2026-04-25 13:25 | 5.39255 | -2.82801 | 9979 ft | 291 kts | 274° |
| 2026-04-25 13:26 | 5.39337 | -2.84800 | 9749 ft | 291 kts | 274° |
| 2026-04-25 13:26 | 5.39415 | -2.86863 | 9491 ft | 291 kts | 274° |
| 2026-04-25 13:26 | 5.39487 | -2.88876 | 9322 ft | 287 kts | 273° |
| 2026-04-25 13:26 | 5.39532 | -2.90194 | 9236 ft | 284 kts | 273° |
| 2026-04-25 13:27 | 5.39616 | -2.92792 | 9065 ft | 280 kts | 273° |
| 2026-04-25 13:27 | 5.39679 | -2.94741 | 8940 ft | 281 kts | 273° |
| 2026-04-25 13:27 | 5.39740 | -2.96710 | 8827 ft | 284 kts | 273° |
| 2026-04-25 13:27 | 5.39781 | -2.98024 | 8747 ft | 284 kts | 273° |
| 2026-04-25 13:28 | 5.39842 | -2.99999 | 8624 ft | 284 kts | 273° |
| 2026-04-25 13:28 | 5.39883 | -3.01349 | 8540 ft | 287 kts | 273° |
| 2026-04-25 13:28 | 5.39963 | -3.03989 | 8377 ft | 283 kts | 272° |
| 2026-04-25 13:28 | 5.40040 | -3.06579 | 8203 ft | 278 kts | 273° |
| 2026-04-25 13:29 | 5.40098 | -3.08518 | 8096 ft | 279 kts | 272° |
| 2026-04-25 13:29 | 5.40138 | -3.09833 | 8015 ft | 278 kts | 272° |
| 2026-04-25 13:29 | 5.40214 | -3.12399 | 7857 ft | 278 kts | 272° |
| 2026-04-25 13:30 | 5.40330 | -3.16271 | 7623 ft | 277 kts | 272° |
| 2026-04-25 13:30 | 5.40367 | -3.17545 | 7544 ft | 277 kts | 272° |
| 2026-04-25 13:30 | 5.40425 | -3.19482 | 7422 ft | 276 kts | 272° |
| 2026-04-25 13:31 | 5.40558 | -3.23941 | 7145 ft | 274 kts | 272° |
| 2026-04-25 13:31 | 5.40596 | -3.25228 | 7072 ft | 273 kts | 272° |
| 2026-04-25 13:31 | 5.40652 | -3.27125 | 6959 ft | 272 kts | 272° |
| 2026-04-25 13:31 | 5.40726 | -3.29637 | 6807 ft | 271 kts | 272° |
| 2026-04-25 13:32 | 5.40763 | -3.30886 | 6725 ft | 271 kts | 272° |
| 2026-04-25 13:32 | 5.40837 | -3.33404 | 6574 ft | 269 kts | 272° |
| 2026-04-25 13:32 | 5.40892 | -3.35271 | 6458 ft | 267 kts | 272° |
| 2026-04-25 13:32 | 5.40947 | -3.37134 | 6346 ft | 266 kts | 271° |
| 2026-04-25 13:33 | 5.40983 | -3.38362 | 6266 ft | 265 kts | 271° |
| 2026-04-25 13:33 | 5.41037 | -3.40206 | 6142 ft | 264 kts | 271° |
| 2026-04-25 13:33 | 5.41109 | -3.42662 | 5981 ft | 263 kts | 271° |
| 2026-04-25 13:33 | 5.41145 | -3.43875 | 5897 ft | 262 kts | 271° |
| 2026-04-25 13:34 | 5.41198 | -3.45696 | 5775 ft | 261 kts | 271° |
| 2026-04-25 13:34 | 5.41251 | -3.47517 | 5667 ft | 260 kts | 271° |
| 2026-04-25 13:34 | 5.41322 | -3.49918 | 5496 ft | 260 kts | 271° |
| 2026-04-25 13:34 | 5.41357 | -3.51143 | 5416 ft | 259 kts | 271° |
| 2026-04-25 13:35 | 5.41427 | -3.53530 | 5254 ft | 258 kts | 271° |
| 2026-04-25 13:35 | 5.41462 | -3.54723 | 5177 ft | 257 kts | 271° |
| 2026-04-25 13:35 | 5.41513 | -3.56488 | 4989 ft | 259 kts | 271° |
| 2026-04-25 13:35 | 5.41566 | -3.58302 | 4753 ft | 260 kts | 271° |
| 2026-04-25 13:36 | 5.41636 | -3.60702 | 4435 ft | 256 kts | 271° |
| 2026-04-25 13:36 | 5.41723 | -3.62483 | 4181 ft | 255 kts | 275° |
| 2026-04-25 13:36 | 5.41985 | -3.64236 | 3949 ft | 253 kts | 278° |
| 2026-04-25 13:36 | 5.42184 | -3.65381 | 3780 ft | 251 kts | 278° |
| 2026-04-25 13:37 | 5.42577 | -3.67640 | 3459 ft | 246 kts | 278° |
| 2026-04-25 13:37 | 5.42770 | -3.68781 | 3302 ft | 246 kts | 278° |
| 2026-04-25 13:37 | 5.43049 | -3.70464 | 3057 ft | 244 kts | 278° |
| 2026-04-25 13:37 | 5.43322 | -3.72144 | 2833 ft | 243 kts | 277° |
| 2026-04-25 13:38 | 5.43591 | -3.73820 | 2596 ft | 245 kts | 277° |
| 2026-04-25 13:38 | 5.43860 | -3.75511 | 2361 ft | 247 kts | 277° |
| 2026-04-25 13:38 | 5.44126 | -3.77189 | 2218 ft | 234 kts | 276° |
| 2026-04-25 13:38 | 5.44372 | -3.78739 | 2192 ft | 216 kts | 277° |
| 2026-04-25 13:39 | 5.44672 | -3.80652 | 2195 ft | 209 kts | 277° |
| 2026-04-25 13:39 | 5.44900 | -3.82099 | 2206 ft | 206 kts | 276° |
| 2026-04-25 13:39 | 5.45026 | -3.83044 | 2185 ft | 205 kts | 270° |
| 2026-04-25 13:39 | 5.44658 | -3.84382 | 2181 ft | 203 kts | 230° |
| 2026-04-25 13:40 | 5.43514 | -3.85163 | 2213 ft | 202 kts | 205° |
| 2026-04-25 13:40 | 5.42267 | -3.85821 | 2194 ft | 202 kts | 211° |
| 2026-04-25 13:40 | 5.41020 | -3.86471 | 2195 ft | 203 kts | 203° |
| 2026-04-25 13:40 | 5.39704 | -3.87001 | 2207 ft | 205 kts | 201° |
| 2026-04-25 13:41 | 5.38380 | -3.87535 | 2202 ft | 202 kts | 202° |
| 2026-04-25 13:41 | 5.37084 | -3.88069 | 2071 ft | 202 kts | 202° |
| 2026-04-25 13:41 | 5.35788 | -3.88605 | 1827 ft | 202 kts | 202° |
| 2026-04-25 13:41 | 5.34099 | -3.89301 | 1489 ft | 186 kts | 202° |
| 2026-04-25 13:42 | 5.33335 | -3.89615 | 1332 ft | 177 kts | 202° |
| 2026-04-25 13:42 | 5.32227 | -3.90073 | 1087 ft | 161 kts | 202° |
| 2026-04-25 13:42 | 5.31241 | -3.90479 | 898 ft | 146 kts | 202° |
| 2026-04-25 13:42 | 5.30349 | -3.90847 | 733 ft | 132 kts | 202° |
| 2026-04-25 13:43 | 5.29488 | -3.91205 | 679 ft | 137 kts | 205° |
| 2026-04-25 13:43 | 5.28605 | -3.91606 | 581 ft | 138 kts | 203° |
| 2026-04-25 13:43 | 5.27713 | -3.91967 | 299 ft | 140 kts | 202° |
| 2026-04-25 13:43 | 5.26830 | -3.92309 | 267 ft | 131 kts | 202° |
| 2026-04-25 13:44 | 5.25983 | -3.92675 | 661 ft | 131 kts | 206° |
| 2026-04-25 13:44 | 5.24594 | -3.93217 | 652 ft | 202 kts | 199° |
| 2026-04-25 13:44 | 5.23668 | -3.93521 | 278 ft | 218 kts | 202° |
| 2026-04-25 13:44 | 5.22271 | -3.94009 | 376 ft | 196 kts | 198° |
| 2026-04-25 13:45 | 5.20927 | -3.94372 | 141 ft | 206 kts | 190° |
| 2026-04-25 13:45 | 5.19623 | -3.94251 | 787 ft | 188 kts | 156° |
| 2026-04-25 13:45 | 5.18527 | -3.93375 | 1103 ft | 218 kts | 136° |
| 2026-04-25 13:45 | 5.17478 | -3.92106 | 443 ft | 243 kts | 118° |
| 2026-04-25 13:46 | 5.17255 | -3.90674 | 1688 ft | 201 kts | 86° |
| 2026-04-25 13:46 | 5.17543 | -3.89189 | 1779 ft | 230 kts | 76° |
| 2026-04-25 13:46 | 5.17943 | -3.87642 | 1930 ft | 220 kts | 75° |
| 2026-04-25 13:46 | 5.18339 | -3.86184 | 2198 ft | 222 kts | 76° |
| 2026-04-25 13:47 | 5.18803 | -3.84678 | 2213 ft | 234 kts | 65° |
| 2026-04-25 13:47 | 5.19883 | -3.83317 | 2210 ft | 266 kts | 33° |
| 2026-04-25 13:47 | 5.21585 | -3.82614 | 2206 ft | 272 kts | 13° |
| 2026-04-25 13:47 | 5.23369 | -3.82178 | 2192 ft | 273 kts | 13° |
| 2026-04-25 13:48 | 5.25199 | -3.81685 | 2200 ft | 273 kts | 15° |
| 2026-04-25 13:48 | 5.27031 | -3.81168 | 2225 ft | 272 kts | 15° |
| 2026-04-25 13:48 | 5.28828 | -3.80662 | 2206 ft | 262 kts | 14° |
| 2026-04-25 13:48 | 5.30566 | -3.80174 | 2209 ft | 253 kts | 14° |
| 2026-04-25 13:49 | 5.32274 | -3.79696 | 2201 ft | 253 kts | 15° |
| 2026-04-25 13:49 | 5.33962 | -3.79224 | 2191 ft | 252 kts | 14° |
| 2026-04-25 13:49 | 5.35646 | -3.78752 | 2165 ft | 250 kts | 14° |
| 2026-04-25 13:49 | 5.37309 | -3.78293 | 2194 ft | 249 kts | 14° |
| 2026-04-25 13:50 | 5.38997 | -3.77825 | 2190 ft | 252 kts | 14° |
| 2026-04-25 13:50 | 5.40724 | -3.77608 | 2182 ft | 250 kts | 350° |
| 2026-04-25 13:50 | 5.42258 | -3.78319 | 2204 ft | 242 kts | 316° |
| 2026-04-25 13:50 | 5.43264 | -3.79646 | 2192 ft | 238 kts | 294° |
| 2026-04-25 13:51 | 5.43938 | -3.81159 | 2206 ft | 238 kts | 289° |
| 2026-04-25 13:51 | 5.44206 | -3.82771 | 2187 ft | 235 kts | 262° |
| 2026-04-25 13:51 | 5.43689 | -3.84300 | 2175 ft | 233 kts | 231° |
| 2026-04-25 13:51 | 5.42469 | -3.85342 | 2197 ft | 232 kts | 215° |
| 2026-04-25 13:52 | 5.41143 | -3.86255 | 2202 ft | 232 kts | 211° |
| 2026-04-25 13:52 | 5.39730 | -3.86970 | 2192 ft | 222 kts | 203° |
| 2026-04-25 13:52 | 5.38378 | -3.87537 | 2176 ft | 202 kts | 202° |
| 2026-04-25 13:52 | 5.37073 | -3.88074 | 2035 ft | 204 kts | 202° |
| 2026-04-25 13:53 | 5.35808 | -3.88596 | 1823 ft | 191 kts | 202° |
| 2026-04-25 13:53 | 5.34638 | -3.89077 | 1602 ft | 179 kts | 202° |
| 2026-04-25 13:53 | 5.33522 | -3.89536 | 1413 ft | 165 kts | 202° |
| 2026-04-25 13:53 | 5.32491 | -3.89963 | 1145 ft | 152 kts | 202° |
| 2026-04-25 13:54 | 5.31585 | -3.90335 | 965 ft | 138 kts | 200° |
| 2026-04-25 13:54 | 5.30695 | -3.90701 | 774 ft | 138 kts | 202° |
| 2026-04-25 13:54 | 5.29817 | -3.91056 | 593 ft | 136 kts | 202° |
| 2026-04-25 13:54 | 5.28942 | -3.91448 | 398 ft | 138 kts | 200° |
| 2026-04-25 13:55 | 5.28041 | -3.91793 | 241 ft | 138 kts | 203° |
| 2026-04-25 13:55 | 5.27166 | -3.92165 | 39 ft | 134 kts | 201° |
| 2026-04-25 13:55 | 5.26355 | -3.92495 | 33 ft | 116 kts | 202° |
| 2026-04-25 13:55 | 5.25844 | -3.92704 | 36 ft | 55 kts | 202° |
| 2026-04-25 13:56 | 5.25585 | -3.92811 | 33 ft | 30 kts | 202° |
| 2026-04-25 13:56 | 5.25484 | -3.92865 | 35 ft | 10 kts | 227° |
| 2026-04-25 13:56 | 5.25477 | -3.92875 | 35 ft | 2 kts | 244° |
| 2026-04-25 13:56 | 5.25473 | -3.92902 | 34 ft | 6 kts | 273° |
| 2026-04-25 13:57 | 5.25486 | -3.92946 | 34 ft | 8 kts | 294° |
| 2026-04-25 13:57 | 5.25500 | -3.92984 | 35 ft | 9 kts | 281° |
| 2026-04-25 13:57 | 5.25451 | -3.93051 | 35 ft | 10 kts | 206° |
| 2026-04-25 13:57 | 5.25422 | -3.93066 | 35 ft | 2 kts | 204° |
| 2026-04-25 13:58 | 5.25393 | -3.93073 | 35 ft | 6 kts | 194° |
| 2026-04-25 13:58 | 5.25368 | -3.93085 | 33 ft | 2 kts | 231° |
| 2026-04-25 13:58 | 5.25357 | -3.93111 | 35 ft | 6 kts | 250° |
| 2026-04-25 13:58 | 5.25352 | -3.93150 | 35 ft | 1 kts | 279° |
| 2026-04-25 13:59 | 5.25361 | -3.93164 | 34 ft | 4 kts | 311° |
| 2026-04-25 13:59 | 5.25382 | -3.93182 | 35 ft | 1 kts | 319° |
| 2026-04-25 13:59 | 5.25388 | -3.93188 | 35 ft | 2 kts | 320° |
| 2026-04-25 13:59 | 5.25390 | -3.93190 | 35 ft | 0 kts | 320° |